Time;durP1;ratioP1;P1;durP2;ratioP2;P2;SDS_P1;SDS_P2;PMS_P1;PMS_P2;Temp;Humidity;BMP_temperature;BMP_pressure;BME280_temperature;BME280_humidity;BME280_pressure;Samples;Min_cycle;Max_cycle;Signal;HPM_P1;HPM_P2
2020/12/14 00:01:54;;;;;;;37.72;4.38;;;;;;;10.78;88.48;98399.97;4884730;29;20732;-75
2020/12/14 00:04:30;;;;;;;;;;;;;;;;;;;;;
2020/12/14 00:06:55;;;;;;;29.55;4.18;;;;;;;10.78;88.92;98402.72;4884101;29;20464;-74
2020/12/14 00:09:23;;;;;;;25.50;4.80;;;;;;;10.73;89.31;98390.00;4894896;29;20129;-72
2020/12/14 00:11:49;;;;;;;23.05;4.10;;;;;;;10.83;89.14;98399.81;4895514;29;20048;-73
2020/12/14 00:14:17;;;;;;;25.30;3.75;;;;;;;10.87;89.88;98398.06;4884218;29;20033;-74
2020/12/14 00:16:43;;;;;;;24.60;4.38;;;;;;;10.94;89.65;98398.41;4886086;29;20111;-73
2020/12/14 00:19:09;;;;;;;28.20;4.25;;;;;;;10.98;89.01;98390.38;4901118;29;20049;-75
2020/12/14 00:21:35;;;;;;;30.00;4.40;;;;;;;11.07;89.07;98382.19;4904398;29;20048;-74
2020/12/14 00:24:01;;;;;;;18.25;3.30;;;;;;;11.10;89.45;98398.78;4896394;29;20040;-74
2020/12/14 00:26:27;;;;;;;25.15;3.95;;;;;;;11.18;89.08;98391.69;4892067;29;20114;-73
2020/12/14 00:28:52;;;;;;;27.10;3.53;;;;;;;11.20;88.99;98381.25;4893369;29;20036;-72
2020/12/14 00:31:20;;;;;;;18.88;3.25;;;;;;;11.19;89.18;98374.16;4888722;29;20037;-74
2020/12/14 00:33:46;;;;;;;15.27;2.95;;;;;;;11.26;89.72;98371.75;4899450;29;20060;-73
2020/12/14 00:36:12;;;;;;;17.10;2.75;;;;;;;11.29;89.37;98368.38;4898557;29;20025;-73
2020/12/14 00:38:38;;;;;;;21.38;3.20;;;;;;;11.33;88.62;98380.31;4898360;29;20025;-72
2020/12/14 00:41:04;;;;;;;15.30;2.83;;;;;;;11.28;89.18;98366.75;4896533;29;20083;-71
2020/12/14 00:43:30;;;;;;;24.17;3.75;;;;;;;11.28;89.26;98361.28;4906114;29;20041;-73
2020/12/14 00:45:55;;;;;;;34.50;3.30;;;;;;;11.27;89.10;98392.53;4911248;29;20029;-72
2020/12/14 00:48:21;;;;;;;21.58;3.42;;;;;;;11.28;89.23;98372.22;4905927;29;20060;-71
2020/12/14 00:50:46;;;;;;;24.33;3.70;;;;;;;11.28;88.70;98372.22;4910135;29;20050;-70
2020/12/14 00:53:12;;;;;;;35.25;5.40;;;;;;;11.31;88.97;98377.06;4913133;29;20021;-71
2020/12/14 00:55:38;;;;;;;29.48;5.35;;;;;;;11.30;88.63;98348.13;4899366;29;20055;-73
2020/12/14 00:58:04;;;;;;;30.60;4.40;;;;;;;11.30;88.10;98342.63;4903027;29;20036;-73
2020/12/14 01:00:29;;;;;;;27.40;3.53;;;;;;;11.37;88.45;98357.75;4917337;29;20036;-73
2020/12/14 01:02:55;;;;;;;43.85;4.95;;;;;;;11.29;88.74;98340.22;4909069;29;20036;-73
2020/12/14 01:05:20;;;;;;;38.45;4.32;;;;;;;11.34;88.55;98346.31;4920796;29;20106;-73
2020/12/14 01:07:50;;;;;;;32.75;4.38;;;;;;;11.37;88.41;98335.88;4900607;29;20676;-75
2020/12/14 01:10:16;;;;;;;30.00;4.55;;;;;;;11.39;88.78;98344.56;4914478;29;20103;-75
2020/12/14 01:12:42;;;;;;;28.73;3.83;;;;;;;11.38;88.22;98334.75;4912888;29;20123;-73
2020/12/14 01:15:07;;;;;;;36.42;6.30;;;;;;;11.40;88.55;98340.69;4899992;29;20491;-73
2020/12/14 01:17:32;;;;;;;43.53;5.72;;;;;;;11.43;89.00;98340.06;4914227;29;20027;-73
2020/12/14 01:19:58;;;;;;;42.85;5.13;;;;;;;11.41;88.49;98337.63;4910835;29;20032;-72
2020/12/14 01:22:24;;;;;;;25.00;3.97;;;;;;;11.47;88.29;98332.81;4907368;29;20024;-72
2020/12/14 01:24:49;;;;;;;31.52;4.30;;;;;;;11.43;88.54;98335.38;4912398;29;20028;-73
2020/12/14 01:27:15;;;;;;;31.25;4.63;;;;;;;11.33;88.57;98341.16;4900080;29;20036;-73
2020/12/14 01:29:43;;;;;;;33.35;4.20;;;;;;;11.23;88.93;98341.50;4887526;29;20553;-71
2020/12/14 01:32:09;;;;;;;27.05;4.47;;;;;;;11.12;89.05;98335.53;4902335;29;20046;-75
2020/12/14 01:34:35;;;;;;;42.38;5.95;;;;;;;11.12;89.50;98357.41;4888604;29;20028;-75
2020/12/14 01:37:03;;;;;;;51.03;6.00;;;;;;;11.02;90.47;98331.19;4909805;29;20020;-74
2020/12/14 01:39:31;;;;;;;40.40;4.88;;;;;;;10.99;90.08;98340.84;4902595;29;20035;-76
2020/12/14 01:41:59;;;;;;;49.33;4.35;;;;;;;10.96;90.80;98351.59;4885645;29;20028;-80
2020/12/14 01:44:25;;;;;;;6.22;2.17;;;;;;;10.73;90.15;98350.91;4914679;29;20102;-77
2020/12/14 01:46:53;;;;;;;5.13;0.70;;;;;;;10.41;89.51;98374.75;4912409;29;20036;-75
2020/12/14 01:49:19;;;;;;;0.40;0.10;;;;;;;10.05;89.31;98372.94;4899694;29;20044;-74
2020/12/14 01:51:45;;;;;;;0.47;0.10;;;;;;;9.75;89.59;98356.22;4907416;29;20546;-76
2020/12/14 01:54:34;;;;;;;1.48;0.30;;;;;;;9.55;89.21;98402.00;4920810;29;20068;-77
2020/12/14 01:57:01;;;;;;;1.05;0.50;;;;;;;9.38;89.95;98385.47;4905799;29;20516;-77
2020/12/14 01:59:29;;;;;;;1.80;0.30;;;;;;;9.29;90.50;98377.22;4907672;29;20086;-78
2020/12/14 02:01:54;;;;;;;4.25;0.20;;;;;;;9.26;91.08;98373.19;4896266;29;20043;-77
2020/12/14 02:04:20;;;;;;;6.22;0.40;;;;;;;9.21;90.93;98381.47;4902982;29;20028;-77
2020/12/14 02:06:45;;;;;;;1.48;0.20;;;;;;;9.15;91.07;98377.25;4886131;29;20031;-75
2020/12/14 02:09:11;;;;;;;3.08;0.55;;;;;;;9.13;91.07;98360.38;4916161;29;20040;-75
2020/12/14 02:11:36;;;;;;;9.32;1.50;;;;;;;9.20;90.80;98373.59;4893291;29;20476;-75
2020/12/14 02:14:02;;;;;;;7.85;1.55;;;;;;;9.34;91.63;98373.56;4921647;29;20063;-76
2020/12/14 02:16:28;;;;;;;11.82;2.92;;;;;;;9.49;92.04;98367.75;4918274;29;20122;-77
2020/12/14 02:18:56;;;;;;;10.50;2.13;;;;;;;9.63;92.05;98383.28;4884765;29;20455;-78
2020/12/14 02:21:21;;;;;;;16.50;2.67;;;;;;;9.69;91.82;98379.28;4911355;29;20032;-78
2020/12/14 02:23:47;;;;;;;7.63;1.38;;;;;;;9.75;91.70;98395.25;4915999;29;20431;-78
2020/12/14 02:26:12;;;;;;;7.03;0.68;;;;;;;9.74;91.10;98373.72;4901751;29;20471;-77
2020/12/14 02:28:38;;;;;;;4.00;0.50;;;;;;;9.76;92.15;98357.81;4899453;29;20047;-79
2020/12/14 02:31:04;;;;;;;1.60;0.75;;;;;;;9.74;92.02;98371.00;4910222;29;20506;-78
2020/12/14 02:33:29;;;;;;;10.48;0.68;;;;;;;9.69;91.45;98368.38;4906171;29;20130;-78
2020/12/14 02:35:58;;;;;;;12.52;1.40;;;;;;;9.65;91.89;98372.84;4886475;29;20037;-75
2020/12/14 02:38:26;;;;;;;1.85;0.40;;;;;;;9.58;90.74;98374.06;4912538;29;20043;-75
2020/12/14 02:40:53;;;;;;;5.97;0.57;;;;;;;9.51;91.55;98384.63;4916782;29;20036;-74
2020/12/14 02:43:19;;;;;;;0.63;0.25;;;;;;;9.49;91.63;98392.31;4878357;29;20127;-74
2020/12/14 02:45:44;;;;;;;1.45;0.35;;;;;;;9.52;91.67;98399.06;4890047;29;20471;-74
2020/12/14 02:48:10;;;;;;;3.78;0.70;;;;;;;9.43;91.23;98368.97;4921997;29;20111;-75
2020/12/14 02:50:35;;;;;;;5.63;0.47;;;;;;;9.41;91.50;98368.50;4886394;29;20040;-76
2020/12/14 02:53:04;;;;;;;4.15;0.52;;;;;;;9.46;91.45;98382.00;4898489;29;20052;-75
2020/12/14 02:55:31;;;;;;;6.40;0.50;;;;;;;9.45;91.15;98380.41;4893674;29;20096;-75
2020/12/14 02:57:59;;;;;;;2.85;0.65;;;;;;;9.42;91.48;98375.56;4914285;29;20039;-75
2020/12/14 03:00:25;;;;;;;9.48;0.80;;;;;;;9.47;91.49;98367.25;4907548;29;20075;-76
2020/12/14 03:02:50;;;;;;;3.28;0.50;;;;;;;9.47;91.26;98375.44;4893976;29;20029;-74
2020/12/14 03:05:16;;;;;;;3.67;0.50;;;;;;;9.45;91.01;98350.38;4915033;29;20040;-75
2020/12/14 03:07:41;;;;;;;2.95;0.60;;;;;;;9.46;91.63;98349.25;4897487;29;20107;-75
2020/12/14 03:10:07;;;;;;;2.90;0.40;;;;;;;9.52;91.28;98352.66;4911100;29;20028;-75
2020/12/14 03:12:32;;;;;;;3.40;0.52;;;;;;;9.47;91.24;98356.34;4905393;29;20032;-74
2020/12/14 03:14:59;;;;;;;4.20;0.65;;;;;;;9.48;91.50;98363.41;4880072;29;20036;-74
2020/12/14 03:17:25;;;;;;;2.40;1.27;;;;;;;9.48;91.23;98379.78;4898896;29;20074;-74
2020/12/14 03:19:50;;;;;;;2.60;0.80;;;;;;;9.50;91.21;98368.56;4900122;29;20044;-74
2020/12/14 03:22:16;;;;;;;4.68;0.50;;;;;;;9.50;91.68;98355.72;4912248;29;20493;-74
2020/12/14 03:24:41;;;;;;;4.57;0.95;;;;;;;9.49;91.63;98367.75;4894021;29;20028;-74
2020/12/14 03:27:07;;;;;;;5.15;0.70;;;;;;;9.50;91.37;98361.16;4881616;29;20127;-75
2020/12/14 03:29:32;;;;;;;5.72;0.77;;;;;;;9.49;90.97;98370.50;4925165;29;20072;-74
2020/12/14 03:31:58;;;;;;;6.28;0.90;;;;;;;9.51;91.28;98362.78;4902718;29;20060;-75
2020/12/14 03:34:23;;;;;;;1.65;0.50;;;;;;;9.53;91.72;98354.28;4905212;29;20042;-78
2020/12/14 03:36:48;;;;;;;2.55;0.30;;;;;;;9.51;91.75;98357.34;4928552;29;20131;-77
2020/12/14 03:39:14;;;;;;;3.22;0.65;;;;;;;9.55;91.27;98347.41;4905927;29;20442;-77
2020/12/14 03:41:39;;;;;;;9.13;1.00;;;;;;;9.54;91.12;98362.16;4915412;29;20028;-77
2020/12/14 03:44:07;;;;;;;7.05;0.77;;;;;;;9.56;91.18;98370.88;4902486;29;20032;-77
2020/12/14 03:46:34;;;;;;;1.88;0.40;;;;;;;9.58;91.61;98382.28;4911638;29;20035;-77
2020/12/14 03:49:00;;;;;;;4.43;1.00;;;;;;;9.60;91.54;98371.84;4898735;29;20038;-76
2020/12/14 03:51:26;;;;;;;2.05;0.75;;;;;;;9.65;91.69;98383.75;4918286;29;20039;-78
2020/12/14 03:53:52;;;;;;;11.20;0.85;;;;;;;9.68;91.40;98391.31;4917192;29;20028;-75
2020/12/14 03:56:24;;;;;;;2.83;0.50;;;;;;;9.72;91.76;98405.97;4917023;29;20873;-77
2020/12/14 03:58:50;;;;;;;6.03;0.80;;;;;;;9.73;91.77;98386.53;4907380;29;20035;-76
2020/12/14 04:01:28;;;;;;;9.48;1.23;;;;;;;9.80;91.79;98407.97;4920410;29;20114;-77
2020/12/14 04:03:54;;;;;;;2.85;0.60;;;;;;;9.80;90.78;98402.50;4902823;29;20136;-77
2020/12/14 04:06:25;;;;;;;3.65;0.90;;;;;;;9.83;90.85;98396.41;4907792;29;20039;-77
2020/12/14 04:08:52;;;;;;;2.05;1.00;;;;;;;9.78;91.58;98404.72;4901442;29;20052;-77
2020/12/14 04:11:18;;;;;;;12.15;1.58;;;;;;;9.86;91.15;98417.63;4920747;29;20507;-76
2020/12/14 04:13:44;;;;;;;9.20;1.27;;;;;;;9.85;91.55;98416.00;4916573;29;20046;-75
2020/12/14 04:16:10;;;;;;;10.32;1.50;;;;;;;9.83;90.93;98433.81;4914248;29;20028;-76
2020/12/14 04:18:36;;;;;;;9.60;1.20;;;;;;;9.82;90.84;98422.09;4900038;29;20032;-76
2020/12/14 04:21:02;;;;;;;4.53;0.90;;;;;;;9.83;91.28;98431.91;4901075;29;20463;-75
2020/12/14 04:23:28;;;;;;;3.38;0.80;;;;;;;9.77;90.57;98430.41;4898449;29;20032;-76
2020/12/14 04:25:53;;;;;;;6.18;1.58;;;;;;;9.68;91.09;98415.88;4905170;29;20436;-76
2020/12/14 04:28:19;;;;;;;11.18;1.35;;;;;;;9.63;90.97;98437.84;4918952;29;20071;-76
2020/12/14 04:30:44;;;;;;;5.45;1.80;;;;;;;9.53;90.48;98428.75;4905940;29;20035;-75
2020/12/14 04:33:10;;;;;;;12.98;1.98;;;;;;;9.52;90.97;98429.06;4904658;29;20034;-73
2020/12/14 04:35:35;;;;;;;7.07;1.23;;;;;;;9.48;90.94;98430.81;4905486;29;20039;-74
2020/12/14 04:38:00;;;;;;;13.52;1.88;;;;;;;9.45;90.79;98437.69;4903306;29;20037;-71
2020/12/14 04:40:27;;;;;;;4.53;1.05;;;;;;;9.44;91.30;98433.34;4899368;29;20044;-71
2020/12/14 04:42:57;;;;;;;13.30;1.75;;;;;;;9.45;90.74;98443.16;4914383;29;20035;-71
2020/12/14 04:45:24;;;;;;;8.55;2.20;;;;;;;9.51;90.85;98436.47;4899204;29;20040;-71
2020/12/14 04:47:49;;;;;;;12.52;2.00;;;;;;;9.58;91.64;98450.50;4911254;29;20382;-71
2020/12/14 04:50:15;;;;;;;9.63;1.70;;;;;;;9.64;91.96;98447.63;4908639;29;20039;-71
2020/12/14 04:52:41;;;;;;;6.75;1.38;;;;;;;9.61;91.03;98444.41;4915828;29;20347;-70
2020/12/14 04:55:10;;;;;;;10.07;1.60;;;;;;;9.63;90.65;98446.03;4876537;29;20542;-70
2020/12/14 04:57:35;;;;;;;6.85;1.65;;;;;;;9.61;90.45;98444.41;4896367;29;20452;-70
2020/12/14 05:00:01;;;;;;;7.22;1.30;;;;;;;9.58;90.12;98444.22;4906149;29;20115;-70
2020/12/14 05:02:26;;;;;;;6.28;0.82;;;;;;;9.55;90.82;98445.66;4910040;29;20043;-71
2020/12/14 05:04:52;;;;;;;12.00;1.60;;;;;;;9.55;90.41;98445.66;4912953;29;20084;-70
2020/12/14 05:07:17;;;;;;;5.40;1.30;;;;;;;9.58;91.19;98445.03;4898180;29;20036;-70
2020/12/14 05:09:43;;;;;;;14.57;1.77;;;;;;;9.63;91.42;98440.56;4891204;29;20055;-70
2020/12/14 05:12:19;;;;;;;8.40;2.15;;;;;;;9.68;91.67;98440.44;4910202;29;20431;-71
2020/12/14 05:14:44;;;;;;;8.45;1.73;;;;;;;9.71;90.80;98451.56;4898739;29;20052;-71
2020/12/14 05:17:30;;;;;;;12.10;1.15;;;;;;;9.76;91.53;98478.72;4902794;29;20043;-71
2020/12/14 05:19:55;;;;;;;5.50;1.17;;;;;;;9.78;91.00;98459.31;4931519;29;20052;-71
2020/12/14 05:22:21;;;;;;;12.40;1.58;;;;;;;9.75;91.03;98471.66;4910703;29;20401;-71
2020/12/14 05:24:50;;;;;;;7.80;1.40;;;;;;;9.75;90.97;98455.28;4913393;29;20052;-72
2020/12/14 05:27:31;;;;;;;8.48;1.42;;;;;;;9.73;91.18;98462.16;4920486;29;20095;-71
2020/12/14 05:29:58;;;;;;;6.18;1.83;;;;;;;9.74;91.47;98450.94;4918373;29;20311;-71
2020/12/14 05:32:24;;;;;;;8.77;1.88;;;;;;;9.79;90.82;98469.13;4896999;29;20032;-70
2020/12/14 05:34:49;;;;;;;19.63;2.83;;;;;;;9.80;90.61;98457.09;4912022;29;20055;-71
2020/12/14 05:37:15;;;;;;;12.20;1.85;;;;;;;9.82;90.64;98460.31;4908163;29;20055;-70
2020/12/14 05:39:42;;;;;;;8.38;1.50;;;;;;;9.83;90.99;98461.09;4899516;29;20638;-70
2020/12/14 05:42:19;;;;;;;8.18;2.20;;;;;;;9.87;91.42;98457.47;4913167;29;20056;-72
2020/12/14 05:44:46;;;;;;;7.43;1.60;;;;;;;9.89;91.51;98466.16;4885922;29;20072;-71
2020/12/14 05:47:27;;;;;;;5.57;1.65;;;;;;;9.91;91.48;98469.38;4903951;29;20483;-74
2020/12/14 05:49:57;;;;;;;12.30;1.75;;;;;;;9.94;91.37;98473.41;4895079;29;20039;-73
2020/12/14 05:52:34;;;;;;;8.38;1.67;;;;;;;9.93;90.61;98466.34;4908410;29;20040;-73
2020/12/14 05:55:01;;;;;;;5.07;1.30;;;;;;;9.99;91.45;98473.31;4913494;29;20024;-73
2020/12/14 05:57:33;;;;;;;4.93;1.27;;;;;;;10.02;90.77;98475.41;4902933;29;20487;-73
2020/12/14 06:00:09;;;;;;;7.90;1.42;;;;;;;10.03;91.26;98492.59;4911870;29;20032;-73
2020/12/14 06:02:35;;;;;;;13.40;1.75;;;;;;;10.01;91.55;98483.91;4913792;29;20131;-72
2020/12/14 06:05:06;;;;;;;12.77;1.35;;;;;;;10.00;91.41;98487.75;4917075;29;20039;-72
2020/12/14 06:07:34;;;;;;;14.13;2.60;;;;;;;10.02;91.31;98501.91;4916344;29;20031;-72
2020/12/14 06:10:11;;;;;;;10.10;1.42;;;;;;;10.03;90.63;98508.97;4912049;29;20024;-71
2020/12/14 06:12:41;;;;;;;14.48;2.03;;;;;;;10.00;91.40;98507.66;4904167;29;20034;-72
2020/12/14 06:15:14;;;;;;;6.65;1.88;;;;;;;10.01;91.26;98505.75;4911642;29;20096;-71
2020/12/14 06:17:40;;;;;;;12.82;1.88;;;;;;;9.96;91.30;98512.16;4910376;29;20074;-73
2020/12/14 06:20:22;;;;;;;19.70;2.15;;;;;;;9.92;90.60;98517.41;4888399;29;20125;-71
2020/12/14 06:23:06;;;;;;;11.45;1.85;;;;;;;9.83;90.68;98508.34;4894799;29;20039;-71
2020/12/14 06:25:33;;;;;;;12.45;1.52;;;;;;;9.75;90.42;98507.16;4905586;29;20061;-71
2020/12/14 06:28:29;;;;;;;10.52;1.33;;;;;;;9.69;90.90;98505.63;4908610;29;20071;-72
2020/12/14 06:30:55;;;;;;;1.08;0.95;;;;;;;9.65;90.67;98520.22;4916613;29;20024;-72
2020/12/14 06:33:36;;;;;;;9.70;2.42;;;;;;;9.62;91.26;98532.53;4901239;29;20142;-71
2020/12/14 06:36:22;;;;;;;14.40;1.83;;;;;;;9.57;90.40;98536.19;4908046;29;20043;-72
2020/12/14 06:38:50;;;;;;;8.63;1.75;;;;;;;9.52;90.85;98532.75;4910540;29;20024;-74
2020/12/14 06:41:24;;;;;;;3.60;0.93;;;;;;;9.43;90.37;98528.03;4897034;29;20379;-73
2020/12/14 06:44:07;;;;;;;9.90;1.30;;;;;;;9.33;90.05;98524.69;4900598;29;20029;-73
2020/12/14 06:46:35;;;;;;;19.98;2.03;;;;;;;9.22;90.22;98530.34;4914984;29;20048;-72
2020/12/14 06:49:02;;;;;;;5.25;1.45;;;;;;;9.17;89.93;98535.91;4888902;29;20095;-72
2020/12/14 06:51:50;;;;;;;4.05;1.00;;;;;;;9.13;89.89;98554.00;4899193;29;20028;-73
2020/12/14 06:54:41;;;;;;;4.22;1.02;;;;;;;9.11;90.85;98539.84;4918285;29;20028;-77
2020/12/14 06:57:09;;;;;;;6.90;1.10;;;;;;;9.12;90.54;98541.47;4921598;29;20044;-77
2020/12/14 06:59:35;;;;;;;12.05;1.70;;;;;;;9.16;90.44;98550.66;4917154;29;20040;-76
2020/12/14 07:02:05;;;;;;;6.13;1.08;;;;;;;9.16;90.90;98553.38;4913766;29;20028;-75
2020/12/14 07:04:33;;;;;;;10.73;1.20;;;;;;;9.18;90.71;98553.88;4915815;29;20039;-75
2020/12/14 07:07:04;;;;;;;10.73;1.30;;;;;;;9.17;90.16;98544.09;4901529;29;20036;-74
2020/12/14 07:09:34;;;;;;;9.40;1.88;;;;;;;9.13;90.85;98554.00;4904784;29;20401;-76
2020/12/14 07:12:09;;;;;;;5.80;0.95;;;;;;;9.14;90.57;98552.88;4910241;29;20110;-75
2020/12/14 07:14:51;;;;;;;5.97;1.07;;;;;;;9.15;90.76;98554.47;4906575;29;20023;-75
2020/12/14 07:17:30;;;;;;;8.45;1.27;;;;;;;9.18;91.30;98564.78;4912019;29;20032;-76
2020/12/14 07:19:57;;;;;;;6.88;0.98;;;;;;;9.17;91.31;98565.91;4911081;29;20043;-75
2020/12/14 07:22:32;;;;;;;8.60;2.00;;;;;;;9.15;90.40;98562.66;4900380;29;20109;-76
2020/12/14 07:25:04;;;;;;;2.88;0.88;;;;;;;9.15;90.47;98567.31;4909286;29;20036;-77
2020/12/14 07:27:32;;;;;;;5.20;0.70;;;;;;;9.12;90.74;98578.84;4895000;29;20032;-80
2020/12/14 07:30:11;;;;;;;10.20;1.70;;;;;;;9.12;90.76;98582.34;4919377;29;20029;-76
2020/12/14 07:32:47;;;;;;;3.20;1.33;;;;;;;9.10;90.55;98576.41;4898682;29;20107;-77
2020/12/14 07:35:15;;;;;;;5.03;1.58;;;;;;;9.14;91.03;98577.44;4885997;29;20047;-76
2020/12/14 07:37:41;;;;;;;19.20;2.38;;;;;;;9.21;90.94;98568.84;4899523;29;20028;-76
2020/12/14 07:40:09;;;;;;;6.72;1.45;;;;;;;9.23;90.93;98586.53;4907518;29;20052;-76
2020/12/14 07:42:36;;;;;;;5.13;1.38;;;;;;;9.25;91.08;98583.50;4898501;29;20112;-77
2020/12/14 07:45:14;;;;;;;6.28;1.20;;;;;;;9.37;91.61;98593.91;4915008;29;20215;-76
2020/12/14 07:47:42;;;;;;;7.45;1.88;;;;;;;9.38;90.89;98588.13;4909747;29;20154;-76
2020/12/14 07:50:14;;;;;;;3.30;0.52;;;;;;;9.40;90.72;98585.94;4909174;29;20032;-75
2020/12/14 07:52:40;;;;;;;7.20;1.20;;;;;;;9.38;90.07;98600.97;4913441;29;20095;-74
2020/12/14 07:55:09;;;;;;;5.80;1.75;;;;;;;9.37;91.20;98591.16;4910600;29;20031;-75
2020/12/14 07:57:36;;;;;;;7.90;1.42;;;;;;;9.33;90.76;98590.16;4917027;29;20052;-75
2020/12/14 08:00:08;;;;;;;14.27;1.85;;;;;;;9.33;90.37;98595.59;4914727;29;20043;-75
2020/12/14 08:02:34;;;;;;;11.05;1.45;;;;;;;9.31;90.16;98586.94;4908553;29;20109;-74
2020/12/14 08:05:06;;;;;;;8.98;1.67;;;;;;;9.27;89.97;98597.63;4917761;29;20064;-74
2020/12/14 08:07:38;;;;;;;8.07;1.60;;;;;;;9.28;89.90;98598.44;4909524;29;20021;-74
2020/12/14 08:10:07;;;;;;;14.52;2.50;;;;;;;9.26;90.36;98605.00;4905847;29;20028;-75
2020/12/14 08:12:35;;;;;;;7.45;1.70;;;;;;;9.28;90.38;98603.91;4914657;29;20039;-74
2020/12/14 08:15:01;;;;;;;7.03;2.08;;;;;;;9.29;90.19;98610.97;4909586;29;20032;-75
2020/12/14 08:17:30;;;;;;;16.58;2.60;;;;;;;9.33;91.28;98614.69;4907957;29;20055;-76
2020/12/14 08:19:55;;;;;;;14.77;2.20;;;;;;;9.44;90.66;98613.41;4881367;29;20088;-76
2020/12/14 08:22:31;;;;;;;14.18;2.45;;;;;;;9.51;90.62;98608.34;4908546;29;20108;-78
2020/12/14 08:24:57;;;;;;;12.32;2.58;;;;;;;9.53;90.20;98600.66;4901841;29;20024;-77
2020/12/14 08:27:49;;;;;;;1.73;0.75;;;;;;;9.55;90.69;98603.91;4900443;29;20394;-75
2020/12/14 08:30:18;;;;;;;10.13;1.67;;;;;;;9.52;90.66;98615.44;4901786;29;20032;-76
2020/12/14 08:32:43;;;;;;;12.95;2.67;;;;;;;9.50;90.42;98617.63;4891125;29;20039;-74
2020/12/14 08:35:24;;;;;;;17.83;2.00;;;;;;;9.47;90.05;98618.25;4878970;29;20028;-75
2020/12/14 08:37:51;;;;;;;15.98;2.45;;;;;;;9.51;90.29;98619.25;4917070;29;20032;-75
2020/12/14 08:40:17;;;;;;;21.52;3.03;;;;;;;9.55;90.99;98631.19;4920720;29;20035;-77
2020/12/14 08:42:43;;;;;;;21.17;3.35;;;;;;;9.66;90.54;98648.16;4914880;29;20089;-75
2020/12/14 08:45:12;;;;;;;22.42;3.25;;;;;;;9.73;91.14;98639.59;4918822;29;20036;-77
2020/12/14 08:47:39;;;;;;;29.02;3.53;;;;;;;9.84;91.05;98632.81;4905512;29;20072;-75
2020/12/14 08:50:08;;;;;;;23.85;3.05;;;;;;;9.93;91.23;98630.97;4912388;29;20044;-77
2020/12/14 08:52:34;;;;;;;22.58;3.25;;;;;;;10.03;91.04;98645.50;4902030;29;20096;-76
2020/12/14 08:54:59;;;;;;;13.45;2.95;;;;;;;10.06;90.25;98617.59;4901313;29;20115;-77
2020/12/14 08:57:34;;;;;;;20.30;3.03;;;;;;;10.04;90.39;98619.81;4889439;29;20058;-76
2020/12/14 09:00:12;;;;;;;41.97;3.42;;;;;;;10.06;90.17;98623.88;4916258;29;20044;-80
2020/12/14 09:02:38;;;;;;;23.92;3.00;;;;;;;10.12;90.41;98621.84;4920398;29;20042;-76
2020/12/14 09:05:19;;;;;;;24.42;3.63;;;;;;;10.20;90.40;98618.38;4931409;29;20035;-77
2020/12/14 09:07:45;;;;;;;14.07;2.22;;;;;;;10.25;90.26;98637.38;4907017;29;20049;-76
2020/12/14 09:10:28;;;;;;;28.63;3.70;;;;;;;10.37;90.66;98638.81;4914932;29;20032;-76
2020/12/14 09:13:03;;;;;;;28.27;3.60;;;;;;;10.50;90.16;98632.50;4938636;28;20059;-76
2020/12/14 09:15:28;;;;;;;26.47;4.63;;;;;;;10.61;90.16;98633.84;4921898;29;20048;-77
2020/12/14 09:18:05;;;;;;;17.90;2.33;;;;;;;10.68;90.30;98646.28;4924205;29;20267;-77
2020/12/14 09:20:32;;;;;;;21.63;3.05;;;;;;;10.71;89.32;98642.94;4932024;29;20032;-76
2020/12/14 09:22:58;;;;;;;19.67;3.58;;;;;;;10.74;89.29;98642.31;4927334;29;20583;-77
2020/12/14 09:25:23;;;;;;;34.95;3.47;;;;;;;10.72;89.15;98650.00;4917558;29;20058;-76
2020/12/14 09:27:49;;;;;;;32.15;4.05;;;;;;;10.64;89.30;98655.13;4912386;29;20100;-77
2020/12/14 09:30:14;;;;;;;25.17;3.72;;;;;;;10.69;89.53;98662.38;4912325;29;20054;-74
2020/12/14 09:32:40;;;;;;;20.42;2.55;;;;;;;10.83;89.50;98657.66;4925954;29;20560;-76
2020/12/14 09:35:06;;;;;;;20.92;2.60;;;;;;;11.12;90.08;98655.59;4928877;29;20135;-76
2020/12/14 09:37:32;;;;;;;32.13;4.55;;;;;;;11.55;90.15;98665.97;4927813;29;20059;-78
2020/12/14 09:39:58;;;;;;;10.07;2.33;;;;;;;12.07;89.69;98664.53;4888971;29;20036;-76
2020/12/14 09:42:26;;;;;;;32.83;3.92;;;;;;;12.30;88.23;98678.94;4935159;29;20028;-77
2020/12/14 09:44:51;;;;;;;28.45;4.07;;;;;;;12.27;88.16;98674.91;4910405;29;20020;-77
2020/12/14 09:47:17;;;;;;;25.35;4.53;;;;;;;12.24;87.58;98670.06;4909961;29;20111;-77
2020/12/14 09:49:42;;;;;;;17.73;3.10;;;;;;;12.24;87.23;98683.75;4920020;29;20092;-77
2020/12/14 09:52:08;;;;;;;36.53;4.35;;;;;;;12.04;86.86;98680.47;4888996;29;20040;-77
2020/12/14 09:54:36;;;;;;;28.17;4.30;;;;;;;11.83;86.91;98668.47;4919736;29;20111;-78
2020/12/14 09:57:02;;;;;;;24.25;2.78;;;;;;;11.59;86.76;98664.19;4907716;29;20562;-77
2020/12/14 09:59:27;;;;;;;27.02;4.30;;;;;;;11.51;87.49;98670.44;4887335;29;20030;-79
2020/12/14 10:01:53;;;;;;;27.77;3.50;;;;;;;11.40;87.35;98697.25;4922370;29;20087;-77
2020/12/14 10:04:21;;;;;;;22.85;3.42;;;;;;;11.40;87.86;98699.19;4910973;29;20141;-78
2020/12/14 10:06:51;;;;;;;31.45;2.92;;;;;;;11.26;87.41;98678.19;4896421;29;20051;-77
2020/12/14 10:09:17;;;;;;;29.98;3.60;;;;;;;11.23;88.04;98684.31;4922231;29;20159;-77
2020/12/14 10:11:48;;;;;;;21.63;3.78;;;;;;;11.24;88.04;98683.16;4893094;29;20063;-78
2020/12/14 10:14:17;;;;;;;26.13;3.05;;;;;;;11.23;87.81;98700.72;4904132;29;20105;-77
2020/12/14 10:16:42;;;;;;;21.55;2.60;;;;;;;11.28;87.97;98705.25;4904107;29;20087;-78
2020/12/14 10:19:08;;;;;;;13.57;1.92;;;;;;;11.31;88.05;98699.94;4926434;29;20036;-78
2020/12/14 10:21:33;;;;;;;19.00;2.17;;;;;;;11.39;88.07;98750.41;4902125;29;20055;-78
2020/12/14 10:24:06;;;;;;;6.22;1.27;;;;;;;11.42;87.56;98714.19;4908683;29;20482;-78
2020/12/14 10:26:33;;;;;;;12.35;1.48;;;;;;;11.46;87.36;98711.63;4905926;29;20057;-79
2020/12/14 10:28:58;;;;;;;19.55;1.33;;;;;;;11.44;86.90;98713.88;4892700;29;20037;-77
2020/12/14 10:31:24;;;;;;;13.13;2.05;;;;;;;11.48;87.18;98723.09;4880605;29;20029;-77
2020/12/14 10:33:50;;;;;;;7.63;1.52;;;;;;;11.49;87.56;98716.47;4900506;29;20075;-77
2020/12/14 10:36:18;;;;;;;10.98;1.75;;;;;;;11.50;87.62;98712.63;4909248;29;20028;-79
2020/12/14 10:38:46;;;;;;;15.48;1.90;;;;;;;11.55;87.42;98708.94;4901671;29;20038;-80
2020/12/14 10:41:11;;;;;;;14.27;1.98;;;;;;;11.55;87.44;98700.72;4928595;29;20036;-78
2020/12/14 10:43:37;;;;;;;9.95;2.55;;;;;;;11.58;87.09;98695.44;4902247;29;20036;-78
2020/12/14 10:46:02;;;;;;;11.57;2.08;;;;;;;11.79;87.46;98716.78;4884427;29;20036;-79
2020/12/14 10:48:28;;;;;;;14.38;2.60;;;;;;;11.98;87.06;98717.38;4888776;29;21644;-79
2020/12/14 10:50:54;;;;;;;12.02;2.65;;;;;;;12.13;86.91;98731.75;4905429;29;20095;-78
2020/12/14 10:53:22;;;;;;;34.03;3.80;;;;;;;12.37;87.14;98723.94;4920477;29;20052;-78
2020/12/14 10:55:48;;;;;;;15.80;2.85;;;;;;;12.83;86.23;98718.16;4899587;29;20032;-79
2020/12/14 10:58:13;;;;;;;26.30;3.13;;;;;;;13.00;84.87;98709.13;4897584;29;20062;-76
2020/12/14 11:00:39;;;;;;;26.67;3.35;;;;;;;13.30;83.93;98721.03;4918032;29;20025;-80
2020/12/14 11:03:04;;;;;;;24.58;3.35;;;;;;;13.54;83.22;98719.72;4916612;29;20039;-78
2020/12/14 11:05:37;;;;;;;19.75;2.75;;;;;;;13.71;82.81;98749.88;4914490;29;20101;-76
2020/12/14 11:08:03;;;;;;;20.50;3.55;;;;;;;13.97;81.88;98732.47;4915705;29;20096;-76
2020/12/14 11:10:32;;;;;;;16.70;2.50;;;;;;;14.34;81.20;98735.56;4919455;29;20043;-76
2020/12/14 11:12:57;;;;;;;19.58;2.72;;;;;;;14.59;78.94;98735.72;4901521;29;20021;-76
2020/12/14 11:15:23;;;;;;;11.90;1.40;;;;;;;14.65;79.41;98723.41;4897120;29;20104;-80
2020/12/14 11:17:48;;;;;;;10.48;2.25;;;;;;;14.62;77.84;98735.88;4901790;29;20031;-78
2020/12/14 11:20:15;;;;;;;13.02;1.70;;;;;;;14.39;78.56;98721.59;4910294;29;20033;-80
2020/12/14 11:22:41;;;;;;;11.52;1.75;;;;;;;14.06;78.35;98718.69;4910538;29;20046;-79
2020/12/14 11:25:11;;;;;;;8.15;2.08;;;;;;;13.78;79.26;98714.47;4897654;29;20032;-79
2020/12/14 11:27:36;;;;;;;5.20;1.30;;;;;;;13.67;79.82;98734.38;4912457;29;20091;-78
2020/12/14 11:30:03;;;;;;;9.20;1.33;;;;;;;13.78;79.83;98724.66;4911386;29;20036;-78
2020/12/14 11:32:32;;;;;;;10.88;1.30;;;;;;;13.97;80.25;98727.00;4920572;29;20051;-79
2020/12/14 11:34:57;;;;;;;16.63;1.85;;;;;;;14.26;77.57;98730.91;4889332;29;20031;-72
2020/12/14 11:37:23;;;;;;;11.50;1.77;;;;;;;14.12;77.94;98745.69;4925460;29;20159;-77
2020/12/14 11:39:48;;;;;;;10.65;1.92;;;;;;;13.73;77.66;98731.13;4904013;29;20028;-83